ADDS METAR Data INFO
IDs: Format: Raw Decoded Include TAF

Data at: 1928 UTC 19 Jul 2018

KSLH 191915Z AUTO 05010KT 10SM CLR 23/13 A2998 RMK AO2 T02350135
KSLH 191855Z AUTO 07010G15KT 10SM CLR 23/13 A2998 RMK AO2 T02360132
KSLH 191835Z AUTO 06012KT 10SM CLR 23/13 A2998 RMK AO2 T02340136
KSLH 191815Z AUTO 06012KT 10SM CLR 23/12 A2999 RMK AO2 T02350127
KSLH 191755Z AUTO 06011KT 10SM CLR 23/12 A2999 RMK AO2 T02330128
KSLH 191735Z AUTO 06009KT 10SM CLR 23/11 A2999 RMK AO2 T02350117
KSLH 191715Z AUTO 05009KT 10SM CLR 23/11 A3000 RMK AO2 T02340117
KSLH 191655Z AUTO 05010KT 10SM CLR 23/11 A3000 RMK AO2 T02390110
KSLH 191635Z AUTO 14006KT 10SM CLR 25/06 A3001 RMK AO2 T02480060
KSLH 191615Z AUTO 13007KT 10SM CLR 24/05 A3002 RMK AO2 T02440057
KSLH 191555Z AUTO 06007KT 10SM CLR 23/10 A3002 RMK AO2 T02350107
KSLH 191535Z AUTO 05006KT 10SM CLR 23/11 A3003 RMK AO2 T02340116
KSLH 191515Z AUTO 11004KT 10SM CLR 22/10 A3003 RMK AO2 T02300102
KSLH 191455Z AUTO 00000KT 10SM CLR 22/12 A3003 RMK AO2 T02250122
KSLH 191435Z AUTO 20003KT 10SM CLR 22/12 A3004 RMK AO2 T02200128
KSLH 191415Z AUTO 00000KT 10SM CLR 21/11 A3004 RMK AO2 T02120116
KSLH 191355Z AUTO 00000KT 10SM CLR 20/12 A3004 RMK AO2 T02060120
KSLH 191335Z AUTO 00000KT 10SM CLR 20/13 A3005 RMK AO2 T01990134
KSLH 191316Z AUTO 19003KT 10SM CLR 18/13 A3005 RMK AO2 T01900136
KSLH 191255Z AUTO 20003KT 10SM CLR 17/13 A3005 RMK AO2 T01790132
KSLH 191235Z AUTO 21003KT 10SM CLR 16/12 A3005 RMK AO2 T01660125
KSLH 191215Z AUTO 21003KT 10SM CLR 15/12 A3005 RMK AO2 T01550125
KSLH 191155Z AUTO 00000KT 10SM CLR 14/12 A3005 RMK AO2 T01450122
KSLH 191135Z AUTO 00000KT 10SM CLR 13/12 A3004 RMK AO2 T01370122
KSLH 191115Z AUTO 00000KT 10SM CLR 11/11 A3005 RMK AO2 T01130108
KSLH 191055Z AUTO 00000KT 10SM CLR 09/08 A3005 RMK AO2 T00930087
KSLH 191035Z AUTO 00000KT 10SM CLR 08/07 A3005 RMK AO2 T00840079
KSLH 191015Z AUTO 00000KT 5SM BR CLR 07/07 A3005 RMK AO2 T00790074
KSLH 190955Z AUTO 00000KT 5SM BR CLR 08/07 A3005 RMK AO2 T00810074
KSLH 190935Z AUTO 00000KT 10SM CLR 07/07 A3005 RMK AO2 T00800073
KSLH 190915Z AUTO 00000KT 10SM CLR 09/08 A3005 RMK AO2 T00960091
KSLH 190855Z AUTO 22003KT 10SM CLR 08/08 A3004 RMK AO2 T00860080
KSLH 190835Z AUTO 00000KT 10SM CLR 08/07 A3004 RMK AO2 T00810074
KSLH 190815Z AUTO 00000KT 10SM CLR 08/07 A3004 RMK AO2 T00840079
KSLH 190755Z AUTO 00000KT 10SM CLR 08/07 A3003 RMK AO2 T00860080
KSLH 190735Z AUTO 00000KT 10SM CLR 08/07 A3003 RMK AO2 T00850078
KSLH 190716Z AUTO 00000KT 10SM CLR 08/08 A3003 RMK AO2 T00900082
KSLH 190655Z AUTO 23003KT 10SM CLR 09/08 A3004 RMK AO2 T00950090
KSLH 190635Z AUTO 00000KT 10SM CLR 09/08 A3005 RMK AO2 T00930084
KSLH 190615Z AUTO 00000KT 10SM CLR 09/07 A3005 RMK AO2 T00920079
KSLH 190555Z AUTO 00000KT 10SM CLR 10/08 A3005 RMK AO2 T00980086
KSLH 190535Z AUTO 28003KT 10SM CLR 10/08 A3005 RMK AO2 T00970086
KSLH 190515Z AUTO 22003KT 10SM CLR 10/08 A3004 RMK AO2 T01020087
KSLH 190455Z AUTO 20004KT 10SM CLR 10/09 A3005 RMK AO2 T01070094
KSLH 190435Z AUTO 00000KT 10SM CLR 10/08 A3005 RMK AO2 T01000088
KSLH 190415Z AUTO 00000KT 10SM CLR 10/08 A3005 RMK AO2 T01020089
KSLH 190355Z AUTO 00000KT 10SM CLR 10/08 A3005 RMK AO2 T01060089
KSLH 190335Z AUTO 00000KT 10SM CLR 12/10 A3005 RMK AO2 T01230100
KSLH 190315Z AUTO 00000KT 10SM CLR 12/10 A3005 RMK AO2 T01230101
KSLH 190255Z AUTO 00000KT 10SM CLR 13/10 A3005 RMK AO2 T01300102
KSLH 190235Z AUTO 00000KT 10SM CLR 13/10 A3005 RMK AO2 T01370102
KSLH 190215Z AUTO 27003KT 10SM CLR 14/10 A3005 RMK AO2 T01430104
KSLH 190155Z AUTO 26003KT 10SM CLR 14/11 A3005 RMK AO2 T01450113
KSLH 190135Z AUTO 29004KT 10SM CLR 16/11 A3004 RMK AO2 T01690117
KSLH 190115Z AUTO 00000KT 10SM CLR 17/12 A3004 RMK AO2 T01800124
KSLH 190055Z AUTO 00000KT 10SM CLR 19/12 A3004 RMK AO2 T01940123
KSLH 190035Z AUTO 00000KT 10SM CLR 20/12 A3004 RMK AO2 T02000127
KSLH 190015Z AUTO 35003KT 10SM CLR 20/12 A3004 RMK AO2 T02060130
KSLH 182355Z AUTO 36004KT 10SM CLR 21/12 A3004 RMK AO2 T02100130
KSLH 182335Z AUTO 02005KT 10SM CLR 21/13 A3004 RMK AO2 T02130130
KSLH 182315Z AUTO 02005KT 10SM CLR 21/12 A3004 RMK AO2 T02170122
KSLH 182255Z AUTO 03005KT 10SM CLR 21/12 A3004 RMK AO2 T02180121
KSLH 182235Z AUTO 02006KT 10SM CLR 22/11 A3005 RMK AO2 T02210113
KSLH 182215Z AUTO 36007KT 10SM CLR 22/08 A3004 RMK AO2 T02300090
KSLH 182155Z AUTO 36007KT 10SM CLR 22/08 A3005 RMK AO2 T02260082
KSLH 182135Z AUTO 35011KT 10SM CLR 23/07 A3005 RMK AO2 T02340075
KSLH 182115Z AUTO 01007KT 10SM CLR 23/08 A3005 RMK AO2 T02320081
KSLH 182055Z AUTO 02007KT 10SM CLR 22/07 A3006 RMK AO2 T02260073
KSLH 182035Z AUTO 34007KT 10SM CLR 23/07 A3006 RMK AO2 T02310069
KSLH 182015Z AUTO 35010KT 10SM CLR 23/06 A3007 RMK AO2 T02300068
KSLH 181955Z AUTO 35008KT 10SM CLR 22/07 A3008 RMK AO2 T02300070
KSLH 181935Z AUTO 35010KT 10SM CLR 22/07 A3008 RMK AO2 T02260070
KSLH 181915Z AUTO 36008KT 330V030 10SM CLR 22/06 A3008 RMK AO2 T02270068
KSLH 181855Z AUTO 36009KT 10SM CLR 22/07 A3009 RMK AO2 T02240070
KSLH 181835Z AUTO 01009KT 10SM CLR 22/07 A3009 RMK AO2 T02190078
KSLH 181815Z AUTO 35007KT 10SM CLR 21/08 A3010 RMK AO2 T02180088
KSLH 181755Z AUTO 35008KT 10SM CLR 21/09 A3010 RMK AO2 T02150093
KSLH 181735Z AUTO 36010KT 10SM CLR 21/10 A3010 RMK AO2 T02160099
KSLH 181715Z AUTO 36009KT 10SM CLR 21/10 A3010 RMK AO2 T02160100
KSLH 181655Z AUTO 36007KT 10SM CLR 21/09 A3011 RMK AO2 T02110094
KSLH 181635Z AUTO 35009KT 10SM CLR 21/10 A3012 RMK AO2 T02110098
KSLH 181615Z AUTO 34007KT 10SM SCT038 19/10 A3013 RMK AO2 T01950100
KSLH 181555Z AUTO 33006KT 10SM CLR 20/10 A3013 RMK AO2 T02040103
KSLH 181535Z AUTO 30004KT 10SM CLR 20/10 A3013 RMK AO2 T02060105
KSLH 181515Z AUTO 28005KT 10SM CLR 20/11 A3013 RMK AO2 T02000111
KSLH 181455Z AUTO 28005KT 10SM CLR 19/11 A3013 RMK AO2 T01960115
KSLH 181435Z AUTO 31005KT 10SM CLR 18/11 A3014 RMK AO2 T01890110
KSLH 181415Z AUTO 25004KT 10SM CLR 18/11 A3014 RMK AO2 T01860112
KSLH 181355Z AUTO 26005KT 10SM CLR 17/11 A3014 RMK AO2 T01760111
KSLH 181335Z AUTO 28005KT 10SM CLR 17/10 A3015 RMK AO2 T01700107
KSLH 181315Z AUTO 29006KT 260V320 10SM CLR 16/10 A3015 RMK AO2 T01640105
KSLH 181255Z AUTO 28005KT 10SM CLR 15/11 A3014 RMK AO2 T01550108
KSLH 181235Z AUTO 28006KT 10SM CLR 15/11 A3014 RMK AO2 T01490110
KSLH 181215Z AUTO 28005KT 10SM CLR 13/11 A3014 RMK AO2 T01410110
KSLH 181155Z AUTO 28003KT 10SM CLR 13/10 A3013 RMK AO2 T01310104
KSLH 181135Z AUTO 00000KT 10SM CLR 11/08 A3013 RMK AO2 T01120090
KSLH 181115Z AUTO 23003KT 10SM CLR 10/08 A3012 RMK AO2 T01010084
KSLH 181055Z AUTO 00000KT 10SM CLR 09/07 A3012 RMK AO2 T00920076
KSLH 181035Z AUTO 27004KT 10SM CLR 07/06 A3013 RMK AO2 T00720060
KSLH 181015Z AUTO 00000KT 10SM CLR 06/05 A3013 RMK AO2 T00640052
KSLH 180955Z AUTO 28003KT 10SM CLR 07/06 A3013 RMK AO2 T00730061
KSLH 180935Z AUTO 00000KT 10SM CLR 07/05 A3012 RMK AO2 T00720057
KSLH 180915Z AUTO 00000KT 10SM CLR 07/06 A3012 RMK AO2 T00780059
KSLH 180855Z AUTO 00000KT 10SM CLR 07/05 A3012 RMK AO2 T00710055
KSLH 180835Z AUTO 00000KT 10SM CLR 07/06 A3012 RMK AO2 T00750060
KSLH 180815Z AUTO 00000KT 10SM CLR 07/06 A3012 RMK AO2 T00780065
KSLH 180755Z AUTO 00000KT 10SM CLR 07/06 A3012 RMK AO2 T00740058
KSLH 180735Z AUTO 26003KT 10SM CLR 07/06 A3012 RMK AO2 T00780063